Share

Dijon, France

Longvic Air Base (LFSD) Elev 745 ft | 47.27 °N, 5.09 °E | Change Station

Current weather conditions updated 5 minutes ago

Light Rain
Light Rain
48 °F
Feels Like 48 °F
N
5
Wind Variable Wind from NW
Sunrise 6:46 AM
Sunset 8:32 PM
Moon Waning Gibbous

Today is forecast to be Cooler than yesterday.

Pressure 29.95 in
Visibility 6.2 miles
Clouds
Dew Point 41 °F
Humidity 76%
Rainfall 0.00 in
Snow Depth Not available.
UV Not available.
Pollen Not available.
Air Quality Not available.
Flu Activity Not available.
METAR LFSD 180530Z AUTO 32004KT 9999 -RA NSC 09/05 Q1014

More Conditions Fewer Conditions

Pressure 29.95 in
Visibility 6.2 miles
Clouds
Dew Point 41 °F
Humidity 76%
Rainfall 0.00 in
Snow Depth Not available.
UV Not available.
Pollen Not available.
Air Quality Not available.
Flu Activity Not available.
METAR LFSD 180530Z AUTO 32004KT 9999 -RA NSC 09/05 Q1014

More Conditions Fewer Conditions

10-Day Forecast

Almanac

Astronomy

Apr. 18, 2014 Rise Set
Actual Time 6:46 AM CEST 8:32 PM CEST
Civil Twilight 6:13 AM CEST 9:05 PM CEST
Nautical Twilight 5:34 AM CEST 9:45 PM CEST
Astronomical Twilight 4:51 AM CEST 10:28 PM CEST
Moon No Moon Rise 8:46 AM CEST
Length of Visible Light 14h 51m
Length of Day
13h 46m
Tomorrow will be 3m 13s longer.
Waning Gibbous, 90% of the Moon is Illuminated
Today
Waning Gibbous
Apr 22
Last Quarter
Apr 29
New
May 6
First Quarter
May 14
Full

Yesterday's Extremes

Country Highs Country Lows

Community

  • SUNRISE THROUGH THE TREES.
    SUNRISE THROUGH THE TREES.
  • Dog Wood Blossoms
    Dog Wood Blossoms
  • Morning Light
    Morning Light
  • New Day
    New Day
  • Lake Michigan Sunrise
    Lake Michigan Sunrise

WunderPhotos

Upload Photos

1,702,263 photos uploaded!

WunderBlogs® & News

Nearby

Snow Depth

Not available.

Coastal Water Temperatures

Place Temperature
No Stations Reporting

Earthquake Activity

City Distance Mag. Time & Date
No recent earthquake activity has been reported nearby.
Minimum magnitude displayed is 2.5.

Nearby Weather Stations

Station Location Temp. Windchill Dew Point Humidity Wind Precip. Elev Updated Type
ASNIERES Les DIJON 48.4 °F 48 °F 39 °F 70% North  at  0.0 mph 0.00 in / hr 1083 ft 7:08 AM CEST Normal
Marcilly-sur-Tille 46.4 °F 46 °F 37 °F 69% SSW  at  0.0 mph 0.00 in / hr 902 ft 7:35 AM CEST Rapid Fire
BEAUNE 48.0 °F 48 °F 36 °F 61% NNW  at  2.5 mph 0.00 in / hr 689 ft 7:35 AM CEST Normal

Show More Stations Show Fewer Stations

What do you think?

We're not finished. Please let us know what you like, what you don't like, and what you are still missing.